Time;durP1;ratioP1;P1;durP2;ratioP2;P2;SDS_P1;SDS_P2;PMS_P1;PMS_P2;Temp;Humidity;BMP_temperature;BMP_pressure;BME280_temperature;BME280_humidity;BME280_pressure;Samples;Min_cycle;Max_cycle;Signal;HPM_P1;HPM_P2
2022/10/19 04:00:41;;;;;;;19.08;12.82;;;;;;;12.85;76.51;101038.44;5606319;31;81276;-55
2022/10/19 04:03:44;;;;;;;20.80;12.75;;;;;;;12.85;76.51;101038.44;5584310;31;33310;-56
2022/10/19 04:06:48;;;;;;;15.45;12.40;;;;;;;12.45;77.80;101052.91;5583809;32;33519;-56
2022/10/19 04:09:51;;;;;;;17.77;13.50;;;;;;;12.44;78.12;101043.22;5584093;31;34353;-56
2022/10/19 04:12:53;;;;;;;17.98;14.23;;;;;;;12.43;78.25;101039.72;5583856;32;34231;-56
2022/10/19 04:15:55;;;;;;;26.65;15.55;;;;;;;12.36;78.93;101044.59;5584129;32;34218;-56
2022/10/19 04:18:58;;;;;;;19.65;14.32;;;;;;;12.44;78.89;101044.00;5583948;32;33191;-56
2022/10/19 04:22:00;;;;;;;19.08;13.48;;;;;;;12.56;79.01;101043.69;5583919;31;34242;-57
2022/10/19 04:25:03;;;;;;;25.58;13.68;;;;;;;12.72;78.19;101051.69;5583668;32;33269;-56
2022/10/19 04:28:05;;;;;;;18.10;14.10;;;;;;;12.93;76.98;101051.28;5575696;32;33703;-56
2022/10/19 04:31:07;;;;;;;18.37;14.32;;;;;;;12.94;77.34;101065.53;5564140;32;33776;-56
2022/10/19 04:34:11;;;;;;;19.00;13.82;;;;;;;12.86;77.46;101050.78;5563953;32;33827;-56
2022/10/19 04:37:13;;;;;;;17.62;13.88;;;;;;;12.88;77.56;101051.31;5563952;32;33676;-56
2022/10/19 04:40:15;;;;;;;17.83;13.88;;;;;;;12.94;77.47;101046.69;5575902;32;33580;-57
2022/10/19 04:43:17;;;;;;;18.02;14.05;;;;;;;12.84;77.73;101052.12;5572511;32;33620;-56
2022/10/19 04:46:19;;;;;;;19.35;15.15;;;;;;;12.82;77.98;101043.56;5581224;31;33603;-56
2022/10/19 04:49:21;;;;;;;19.00;13.40;;;;;;;12.81;78.17;101052.69;5582421;32;33669;-56
2022/10/19 04:52:24;;;;;;;17.55;13.25;;;;;;;12.74;77.56;101050.31;5583483;31;34292;-56
2022/10/19 04:55:26;;;;;;;19.70;14.20;;;;;;;12.79;77.20;101047.59;5581881;32;33785;-56
2022/10/19 04:58:28;;;;;;;21.52;13.75;;;;;;;12.90;75.99;101056.41;5581852;31;33937;-57
2022/10/19 05:01:30;;;;;;;22.62;14.75;;;;;;;12.93;75.85;101039.72;5578985;32;32102;-56
2022/10/19 05:04:33;;;;;;;22.02;13.75;;;;;;;13.00;76.44;101056.34;5575660;32;34306;-56
2022/10/19 05:07:35;;;;;;;38.45;13.75;;;;;;;12.98;76.33;101045.06;5581610;32;33593;-57
2022/10/19 05:10:38;;;;;;;23.95;14.25;;;;;;;13.07;76.03;101040.69;5572547;32;34348;-56
2022/10/19 05:13:42;;;;;;;18.67;14.20;;;;;;;13.09;76.12;101053.87;5560151;32;33774;-56
2022/10/19 05:16:44;;;;;;;19.87;13.62;;;;;;;12.97;76.50;101054.22;5565943;32;33631;-56
2022/10/19 05:19:46;;;;;;;22.90;14.07;;;;;;;12.90;76.80;101059.09;5567800;32;33591;-56
2022/10/19 05:22:49;;;;;;;32.53;14.32;;;;;;;12.78;77.28;101069.41;5567844;32;34522;-56
2022/10/19 05:26:03;;;;;;;21.90;14.15;;;;;;;12.72;78.07;101073.22;5565932;32;33739;-56
2022/10/19 05:29:05;;;;;;;43.30;15.90;;;;;;;12.83;76.86;101055.91;5569076;32;34220;-57
2022/10/19 05:32:07;;;;;;;19.85;14.52;;;;;;;12.89;76.60;101068.28;5568148;31;33255;-56
2022/10/19 05:35:10;;;;;;;25.80;15.82;;;;;;;12.83;77.15;101069.38;5565560;32;33668;-56
2022/10/19 05:38:12;;;;;;;23.77;15.38;;;;;;;12.85;77.25;101059.16;5562171;32;33140;-56
2022/10/19 05:41:15;;;;;;;36.10;15.98;;;;;;;12.66;77.59;101062.47;5564509;32;33606;-56
2022/10/19 05:44:22;;;;;;;20.12;15.18;;;;;;;12.59;78.09;101075.41;5567236;32;32029;-56
2022/10/19 05:47:24;;;;;;;45.17;16.40;;;;;;;12.59;78.60;101071.94;5568270;32;34284;-56
2022/10/19 05:50:31;;;;;;;24.95;15.43;;;;;;;12.68;79.35;101070.25;5561697;31;33442;-56
2022/10/19 05:53:34;;;;;;;33.60;15.45;;;;;;;12.86;78.83;101075.00;5567964;32;34275;-56
2022/10/19 05:56:36;;;;;;;23.40;13.77;;;;;;;12.85;79.85;101078.00;5549477;32;34154;-57
2022/10/19 05:59:39;;;;;;;21.27;12.02;;;;;;;12.89;80.09;101070.97;5553783;32;34326;-56
2022/10/19 06:02:41;;;;;;;12.25;9.85;;;;;;;13.25;79.99;101076.94;5567815;32;33388;-56
2022/10/19 06:05:44;;;;;;;23.73;9.68;;;;;;;13.54;78.80;101093.12;5567759;32;33128;-56
2022/10/19 06:08:47;;;;;;;12.43;9.45;;;;;;;13.87;77.04;101085.28;5569245;32;33745;-56
2022/10/19 06:11:50;;;;;;;11.40;8.60;;;;;;;14.04;76.53;101093.75;5565626;32;34356;-57
2022/10/19 06:14:52;;;;;;;13.77;8.93;;;;;;;14.16;75.68;101100.63;5568232;32;34640;-56
2022/10/19 06:17:54;;;;;;;11.60;8.35;;;;;;;14.29;75.13;101099.94;5566353;32;33929;-56
2022/10/19 06:21:02;;;;;;;13.95;9.07;;;;;;;14.38;74.77;101103.62;5568063;32;34324;-56
2022/10/19 06:24:05;;;;;;;14.68;8.40;;;;;;;14.51;74.44;101107.53;5567403;32;34268;-56
2022/10/19 06:27:07;;;;;;;13.32;8.32;;;;;;;14.44;74.56;101101.66;5566802;32;34237;-56
2022/10/19 06:30:10;;;;;;;12.93;8.70;;;;;;;14.48;74.74;101105.38;5568937;32;33305;-56
2022/10/19 06:33:12;;;;;;;10.02;8.15;;;;;;;14.55;74.14;101112.06;5566606;32;33615;-56
2022/10/19 06:36:18;;;;;;;19.12;8.95;;;;;;;14.59;74.17;101116.88;5567840;32;33614;-56
2022/10/19 06:39:20;;;;;;;9.63;7.80;;;;;;;14.76;74.11;101119.91;5568439;32;34263;-56
2022/10/19 06:42:22;;;;;;;12.07;7.82;;;;;;;14.76;73.41;101122.59;5567261;32;33706;-56
2022/10/19 06:45:24;;;;;;;11.57;7.93;;;;;;;14.77;73.47;101135.03;5558127;32;33750;-56
2022/10/19 06:48:27;;;;;;;11.57;7.60;;;;;;;14.80;73.67;101131.72;5567162;31;33875;-56
2022/10/19 06:51:33;;;;;;;10.02;7.80;;;;;;;14.89;72.99;101137.28;5567174;32;34330;-56
2022/10/19 06:54:36;;;;;;;12.57;7.87;;;;;;;14.93;72.70;101144.53;5568462;32;33755;-56
2022/10/19 06:57:38;;;;;;;12.80;7.75;;;;;;;14.95;72.80;101139.63;5566494;32;34422;-54
2022/10/19 07:00:41;;;;;;;15.77;8.23;;;;;;;15.01;72.62;101143.06;5567439;32;33975;-54
2022/10/19 07:03:43;;;;;;;13.73;7.93;;;;;;;15.06;72.65;101147.56;5567839;32;34223;-53
2022/10/19 07:06:46;;;;;;;14.70;7.80;;;;;;;15.14;72.28;101158.53;5567119;32;33556;-54
2022/10/19 07:09:48;;;;;;;10.57;7.47;;;;;;;15.24;72.34;101165.69;5565923;32;33833;-54
2022/10/19 07:12:50;;;;;;;11.80;7.80;;;;;;;15.26;71.83;101161.63;5566800;32;33803;-53
2022/10/19 07:16:09;;;;;;;12.37;8.07;;;;;;;15.30;71.24;101163.72;5562076;32;33714;-54
2022/10/19 07:19:19;;;;;;;11.63;7.37;;;;;;;15.30;71.47;101177.22;5565834;32;33730;-54
2022/10/19 07:22:22;;;;;;;8.60;6.68;;;;;;;15.25;71.72;101178.91;5567863;32;33756;-53
2022/10/19 07:25:29;;;;;;;11.23;7.40;;;;;;;15.34;71.61;101183.66;5566473;32;34375;-53
2022/10/19 07:28:31;;;;;;;14.30;7.50;;;;;;;15.54;70.10;101182.56;5565748;31;34322;-53
2022/10/19 07:31:34;;;;;;;20.62;8.43;;;;;;;15.56;70.32;101191.16;5551133;32;33561;-54
2022/10/19 07:34:36;;;;;;;46.65;9.15;;;;;;;15.62;70.37;101189.97;5566649;32;32909;-54
2022/10/19 07:37:38;;;;;;;14.35;7.40;;;;;;;15.61;70.55;101194.59;5565469;32;34407;-54
2022/10/19 07:40:40;;;;;;;463.33;38.65;;;;;;;15.64;69.51;101191.31;5566301;32;34379;-54
2022/10/19 07:43:49;;;;;;;220.77;20.12;;;;;;;15.73;69.70;101196.88;5562896;32;34278;-54
2022/10/19 07:46:51;;;;;;;1999.90;361.37;;;;;;;15.77;69.17;101206.00;5563272;32;33200;-53
2022/10/19 07:49:53;;;;;;;1999.90;339.92;;;;;;;15.82;70.01;101200.50;5565339;32;33708;-54
2022/10/19 07:52:55;;;;;;;287.67;27.10;;;;;;;15.97;69.51;101194.06;5562066;32;33711;-54
2022/10/19 07:56:06;;;;;;;13.85;8.23;;;;;;;15.95;68.88;101198.94;5565035;32;34284;-54
2022/10/19 07:59:08;;;;;;;115.37;14.85;;;;;;;15.91;68.76;101196.03;5558329;32;33854;-54
2022/10/19 08:02:16;;;;;;;22.58;8.48;;;;;;;15.99;68.70;101183.72;5562165;32;33826;-54
2022/10/19 08:05:18;;;;;;;19.42;8.10;;;;;;;16.02;68.49;101190.44;5560513;32;34316;-53
2022/10/19 08:08:20;;;;;;;37.10;8.77;;;;;;;16.04;68.64;101178.25;5556259;32;33874;-53
2022/10/19 08:11:24;;;;;;;13.27;7.47;;;;;;;16.15;68.59;101184.25;5566102;32;34548;-53
2022/10/19 08:14:26;;;;;;;13.75;7.53;;;;;;;16.24;67.35;101179.78;5566359;32;33630;-54
2022/10/19 08:17:29;;;;;;;14.00;7.93;;;;;;;16.14;68.18;101172.66;5563813;32;33677;-54
2022/10/19 08:20:31;;;;;;;14.10;6.93;;;;;;;16.24;67.76;101179.78;5562159;32;33097;-54
2022/10/19 08:23:34;;;;;;;8.38;6.80;;;;;;;16.31;68.68;101187.50;5566495;32;33522;-54
2022/10/19 08:26:37;;;;;;;8.93;7.07;;;;;;;16.37;68.72;101186.31;5565372;32;33329;-54
2022/10/19 08:29:40;;;;;;;12.95;7.47;;;;;;;16.45;67.26;101185.59;5567158;32;33789;-56
2022/10/19 08:32:42;;;;;;;11.30;6.80;;;;;;;16.39;67.70;101187.62;5564436;32;33373;-57
2022/10/19 08:35:44;;;;;;;11.57;6.93;;;;;;;16.45;67.51;101191.00;5560733;32;34287;-56
2022/10/19 08:38:48;;;;;;;11.23;7.35;;;;;;;16.58;66.95;101182.09;5562372;32;34422;-57
2022/10/19 08:42:02;;;;;;;110.65;13.80;;;;;;;16.55;66.69;101174.56;5562992;32;33702;-57
2022/10/19 08:45:07;;;;;;;16.02;7.00;;;;;;;16.58;68.11;101190.22;5565623;32;34357;-56
2022/10/19 08:48:23;;;;;;;12.18;6.00;;;;;;;16.63;67.14;101190.13;5568172;31;32314;-56
2022/10/19 08:51:27;;;;;;;8.82;6.10;;;;;;;16.64;66.33;101188.22;5568066;32;34325;-57
2022/10/19 08:54:40;;;;;;;11.12;6.40;;;;;;;16.72;66.42;101189.41;5561151;32;33669;-58
2022/10/19 08:58:02;;;;;;;9.57;6.22;;;;;;;16.86;65.24;101182.94;5566794;32;34070;-56
2022/10/19 09:01:27;;;;;;;8.38;5.87;;;;;;;16.90;65.77;101193.97;5562621;32;34085;-57
2022/10/19 09:04:47;;;;;;;8.52;6.10;;;;;;;16.88;64.81;101196.94;5557374;32;33713;-56
2022/10/19 09:07:52;;;;;;;11.30;6.28;;;;;;;16.91;64.88;101196.34;5564058;32;33272;-56
2022/10/19 09:10:56;;;;;;;12.63;7.40;;;;;;;16.94;64.58;101196.84;5566006;32;33948;-56
2022/10/19 09:14:15;;;;;;;19.10;6.57;;;;;;;16.90;64.83;101193.97;5564683;32;33862;-56
2022/10/19 09:17:17;;;;;;;12.18;6.30;;;;;;;16.89;64.94;101195.87;5560050;32;33776;-57
2022/10/19 09:20:23;;;;;;;10.60;5.43;;;;;;;16.98;64.16;101197.84;5561045;32;33663;-56
2022/10/19 09:23:37;;;;;;;8.55;5.20;;;;;;;17.04;63.76;101188.53;5558495;32;34556;-57
2022/10/19 09:26:50;;;;;;;8.27;5.15;;;;;;;17.03;63.26;101187.72;5560336;32;34335;-57
2022/10/19 09:30:05;;;;;;;11.35;6.05;;;;;;;17.04;64.25;101183.09;5562433;32;33847;-56
2022/10/19 09:33:14;;;;;;;19.48;6.07;;;;;;;17.12;63.92;101191.31;5566139;32;33535;-56
2022/10/19 09:36:16;;;;;;;10.50;5.85;;;;;;;17.31;63.74;101191.16;5566910;32;33731;-56
2022/10/19 09:39:31;;;;;;;8.85;5.47;;;;;;;17.31;62.72;101193.88;5561507;32;34467;-56
2022/10/19 09:42:35;;;;;;;10.95;5.28;;;;;;;17.27;61.60;101192.09;5566583;32;33839;-56
2022/10/19 09:45:41;;;;;;;8.98;4.65;;;;;;;17.17;61.99;101187.69;5568117;32;33756;-56
2022/10/19 09:48:48;;;;;;;8.05;4.40;;;;;;;17.34;62.58;101193.25;5566093;32;33179;-56
2022/10/19 09:51:51;;;;;;;8.90;4.65;;;;;;;17.45;61.51;101199.28;5560067;32;33748;-56
2022/10/19 09:55:13;;;;;;;7.62;4.90;;;;;;;17.50;62.04;101196.44;5567703;32;33697;-56
2022/10/19 09:58:18;;;;;;;6.12;4.60;;;;;;;17.55;60.98;101195.53;5563865;32;34435;-56
2022/10/19 10:01:34;;;;;;;6.57;4.87;;;;;;;17.51;60.03;101187.16;5564587;32;33362;-56
2022/10/19 10:04:46;;;;;;;8.90;4.57;;;;;;;17.56;60.57;101186.28;5557967;32;33680;-57
2022/10/19 10:07:53;;;;;;;6.90;4.72;;;;;;;17.67;59.92;101178.69;5559719;31;34244;-56
2022/10/19 10:11:09;;;;;;;10.25;5.20;;;;;;;17.65;60.92;101179.00;5562995;32;34402;-57
2022/10/19 10:14:32;;;;;;;6.70;4.72;;;;;;;17.68;60.56;101175.69;5565830;31;34023;-56
2022/10/19 10:17:36;;;;;;;9.45;5.28;;;;;;;17.77;61.18;101173.84;5567741;32;33722;-56
2022/10/19 10:20:55;;;;;;;7.43;4.68;;;;;;;17.83;61.33;101169.91;5565541;32;33644;-56
2022/10/19 10:24:04;;;;;;;9.73;5.15;;;;;;;17.94;62.02;101165.00;5564378;32;34520;-57
2022/10/19 10:27:33;;;;;;;6.85;4.37;;;;;;;17.92;60.00;101161.81;5564351;32;33657;-56
2022/10/19 10:30:36;;;;;;;12.48;4.80;;;;;;;17.81;60.76;101153.16;5564498;32;34211;-57
2022/10/19 10:33:40;;;;;;;8.68;4.35;;;;;;;17.77;61.04;101152.16;5563538;32;32253;-56
2022/10/19 10:36:52;;;;;;;5.90;4.30;;;;;;;17.75;61.14;101148.13;5560293;32;34055;-56
2022/10/19 10:39:57;;;;;;;6.05;3.72;;;;;;;17.66;61.32;101145.34;5563764;32;33090;-57
2022/10/19 10:43:17;;;;;;;3.53;2.15;;;;;;;17.66;60.35;101144.56;5562992;32;33747;-56
2022/10/19 10:46:26;;;;;;;4.22;2.20;;;;;;;17.84;54.43;101140.84;5567197;32;33703;-56
2022/10/19 10:49:33;;;;;;;3.12;2.20;;;;;;;17.89;53.77;101139.94;5566860;32;34378;-56
2022/10/19 10:52:35;;;;;;;3.15;2.17;;;;;;;18.04;52.83;101134.91;5567557;32;34040;-56
2022/10/19 10:55:39;;;;;;;3.72;2.42;;;;;;;18.06;53.12;101129.19;5562723;32;33736;-56
2022/10/19 10:58:53;;;;;;;3.10;2.25;;;;;;;18.11;53.58;101130.94;5558139;32;33652;-56
2022/10/19 11:02:14;;;;;;;2.37;1.90;;;;;;;18.10;52.94;101119.28;5564648;32;33833;-56
2022/10/19 11:05:28;;;;;;;13.65;2.17;;;;;;;18.17;51.92;101122.34;5565509;32;33673;-56
2022/10/19 11:08:47;;;;;;;3.90;2.20;;;;;;;18.28;50.34;101112.03;5566347;32;35025;-56
2022/10/19 11:11:54;;;;;;;6.12;2.35;;;;;;;18.20;51.42;101100.00;5566500;32;33657;-56
2022/10/19 11:15:05;;;;;;;4.12;2.50;;;;;;;18.24;51.30;101098.25;5568708;32;33677;-56
2022/10/19 11:18:18;;;;;;;3.85;2.33;;;;;;;18.33;50.49;101098.31;5566503;32;33740;-56
2022/10/19 11:21:41;;;;;;;2.05;1.67;;;;;;;18.26;51.11;101098.75;5563802;32;33743;-56
2022/10/19 11:25:18;;;;;;;5.18;2.08;;;;;;;18.29;46.49;101102.78;5567070;32;34232;-56
2022/10/19 11:28:27;;;;;;;2.97;1.85;;;;;;;18.39;46.77;101093.53;5565092;31;33917;-56
2022/10/19 11:31:52;;;;;;;7.75;1.75;;;;;;;18.34;46.55;101108.03;5563973;32;34366;-56
2022/10/19 11:35:05;;;;;;;3.90;1.77;;;;;;;18.35;47.23;101101.53;5557921;32;33709;-56
2022/10/19 11:38:29;;;;;;;5.00;1.95;;;;;;;18.29;47.35;101100.84;5561719;32;33931;-56
2022/10/19 11:41:46;;;;;;;3.07;2.43;;;;;;;18.22;48.45;101100.50;5560924;32;34459;-56
2022/10/19 11:45:07;;;;;;;;;;;;;;;18.23;49.40;101102.09;5555611;32;33707;-56
2022/10/19 11:48:35;;;;;;;7.87;2.03;;;;;;;18.19;50.35;101084.84;5557769;32;34661;-56
2022/10/19 11:51:56;;;;;;;3.72;2.10;;;;;;;18.14;49.86;101093.12;5560176;32;33768;-56
2022/10/19 11:55:06;;;;;;;6.28;2.62;;;;;;;18.08;52.80;101088.97;5559716;32;34271;-56
2022/10/19 11:58:33;;;;;;;4.05;1.98;;;;;;;18.08;53.08;101084.34;5557497;32;34009;-55
2022/10/19 12:02:04;;;;;;;5.87;2.42;;;;;;;18.26;51.28;101079.75;5557458;32;33771;-56
2022/10/19 12:05:26;;;;;;;2.00;1.80;;;;;;;18.26;52.50;101087.91;5557492;32;34380;-56
2022/10/19 12:08:34;;;;;;;4.20;2.08;;;;;;;18.21;50.48;101079.09;5560788;32;34813;-56
2022/10/19 12:11:42;;;;;;;2.95;1.70;;;;;;;18.24;50.39;101081.97;5565668;32;33450;-56
2022/10/19 12:14:50;;;;;;;5.37;1.95;;;;;;;18.18;49.33;101087.87;5567045;32;33741;-55
2022/10/19 12:17:56;;;;;;;3.22;1.65;;;;;;;18.16;49.46;101087.41;5566258;32;34309;-56
2022/10/19 12:21:01;;;;;;;7.05;1.55;;;;;;;18.02;46.94;101080.16;5567849;32;33481;-56
2022/10/19 12:24:13;;;;;;;3.35;2.00;;;;;;;18.03;47.72;101083.69;5566913;32;33622;-56
2022/10/19 12:27:26;;;;;;;4.28;1.37;;;;;;;17.99;47.82;101069.94;5567781;32;33668;-56
2022/10/19 12:30:33;;;;;;;;;;;;;;;18.04;47.03;101066.28;5570352;32;33591;-56
2022/10/19 12:33:35;;;;;;;3.28;1.58;;;;;;;18.00;49.31;101057.97;5570465;32;34025;-56
2022/10/19 12:37:09;;;;;;;2.55;1.87;;;;;;;17.99;47.65;101058.28;5570483;32;34339;-56
2022/10/19 12:40:36;;;;;;;7.43;1.90;;;;;;;17.97;47.98;101060.50;5531455;32;33809;-56
2022/10/19 12:43:48;;;;;;;15.38;2.58;;;;;;;17.95;47.27;101054.63;5568455;32;34287;-56
2022/10/19 12:46:58;;;;;;;4.20;2.70;;;;;;;18.07;45.27;101044.75;5569388;32;34269;-56
2022/10/19 12:50:02;;;;;;;4.60;1.87;;;;;;;18.02;46.55;101044.09;5569930;32;33731;-56
2022/10/19 12:53:04;;;;;;;4.55;2.20;;;;;;;17.99;45.35;101055.59;5567232;32;33783;-56
2022/10/19 12:56:10;;;;;;;5.00;2.20;;;;;;;17.97;45.32;101055.09;5569038;32;33713;-56
2022/10/19 12:59:39;;;;;;;3.20;1.52;;;;;;;17.98;46.58;101043.09;5570607;32;34446;-56
2022/10/19 13:02:41;;;;;;;2.80;1.83;;;;;;;17.99;45.26;101052.88;5567534;32;34218;-56
2022/10/19 13:05:55;;;;;;;3.47;2.37;;;;;;;17.99;47.00;101042.03;5570611;32;34390;-56
2022/10/19 13:09:01;;;;;;;6.95;2.35;;;;;;;18.03;46.18;101032.94;5570493;32;33674;-56
2022/10/19 13:12:16;;;;;;;6.10;1.70;;;;;;;18.07;44.21;101041.22;5569020;32;33704;-56
2022/10/19 13:15:36;;;;;;;7.37;2.20;;;;;;;18.12;43.23;101030.25;5570413;32;33728;-56
2022/10/19 13:19:02;;;;;;;5.05;2.00;;;;;;;18.05;44.18;101028.00;5565158;32;34336;-56
2022/10/19 13:22:25;;;;;;;4.03;1.98;;;;;;;18.03;43.91;101030.22;5562897;32;33668;-56
2022/10/19 13:25:34;;;;;;;3.97;1.87;;;;;;;17.96;43.01;101029.87;5567097;32;33791;-56
2022/10/19 13:28:37;;;;;;;4.35;1.80;;;;;;;18.05;42.46;101035.34;5569353;32;34465;-55
2022/10/19 13:31:39;;;;;;;4.30;2.05;;;;;;;17.99;42.65;101029.25;5569836;32;33277;-56
2022/10/19 13:34:43;;;;;;;4.00;1.90;;;;;;;17.95;41.92;101027.50;5569298;32;33801;-56
2022/10/19 13:37:45;;;;;;;3.90;1.95;;;;;;;18.01;42.92;101035.16;5569023;32;33687;-56
2022/10/19 13:40:47;;;;;;;2.80;2.00;;;;;;;18.01;43.23;101043.31;5569574;32;33693;-56
2022/10/19 13:43:59;;;;;;;4.12;2.15;;;;;;;17.89;45.34;101037.66;5569366;32;33631;-56
2022/10/19 13:47:28;;;;;;;4.70;2.30;;;;;;;17.91;45.42;101037.34;5550768;32;33844;-56
2022/10/19 13:50:57;;;;;;;4.50;2.50;;;;;;;17.95;44.45;101043.75;5550410;32;33673;-56
2022/10/19 13:54:22;;;;;;;3.87;2.35;;;;;;;17.89;45.51;101042.31;5563487;32;33743;-56
2022/10/19 13:57:33;;;;;;;4.78;2.60;;;;;;;17.88;45.32;101046.09;5554538;32;34033;-56
2022/10/19 14:01:14;;;;;;;5.28;2.75;;;;;;;17.78;46.13;101045.28;5568930;32;34304;-56
2022/10/19 14:05:04;;;;;;;4.78;2.78;;;;;;;17.87;46.00;101039.09;5565922;32;33695;-55
2022/10/19 14:08:19;;;;;;;6.95;2.83;;;;;;;17.73;46.77;101052.72;5541584;32;33694;-56
2022/10/19 14:11:32;;;;;;;;;;;;;;;17.75;46.71;101036.94;5550744;32;33633;-56
2022/10/19 14:14:40;;;;;;;5.22;3.30;;;;;;;17.66;50.59;101036.09;5565724;32;33752;-56
2022/10/19 14:17:48;;;;;;;4.47;3.53;;;;;;;17.64;47.11;101044.53;5558798;32;34425;-55
2022/10/19 14:21:07;;;;;;;5.47;3.70;;;;;;;17.60;47.83;101048.97;5569193;32;34105;-55
2022/10/19 14:24:39;;;;;;;6.72;3.58;;;;;;;17.61;48.27;101051.41;5569750;32;33670;-55
2022/10/19 14:27:42;;;;;;;9.55;3.87;;;;;;;17.57;47.84;101052.31;5564040;31;34337;-56
2022/10/19 14:30:53;;;;;;;8.77;3.53;;;;;;;17.41;48.28;101041.06;5569032;32;33649;-56
2022/10/19 14:34:00;;;;;;;6.00;4.03;;;;;;;17.40;48.39;101047.59;5569142;32;34387;-56
2022/10/19 14:37:03;;;;;;;5.68;3.40;;;;;;;17.35;48.31;101053.97;5568945;32;34050;-56
2022/10/19 14:40:39;;;;;;;7.70;3.78;;;;;;;17.32;47.51;101060.00;5569411;32;33655;-56
2022/10/19 14:43:42;;;;;;;7.35;3.17;;;;;;;17.29;46.71;101054.37;5545262;32;33536;-56
2022/10/19 14:46:47;;;;;;;5.10;3.10;;;;;;;17.26;46.48;101065.84;5567773;32;34407;-55
2022/10/19 14:49:50;;;;;;;7.97;3.30;;;;;;;17.17;46.58;101051.44;5569638;32;34554;-56
2022/10/19 14:52:57;;;;;;;5.25;3.20;;;;;;;17.11;46.40;101042.62;5567985;32;34322;-57
2022/10/19 14:56:09;;;;;;;4.18;2.85;;;;;;;17.09;46.17;101053.78;5568601;32;33457;-56
2022/10/19 14:59:28;;;;;;;6.93;3.67;;;;;;;17.08;46.68;101038.59;5568757;32;33457;-56
2022/10/19 15:02:36;;;;;;;5.60;3.20;;;;;;;17.07;46.95;101042.44;5566952;32;33601;-56
2022/10/19 15:05:47;;;;;;;5.72;3.03;;;;;;;16.97;47.13;101053.50;5564950;32;34448;-56
2022/10/19 15:09:02;;;;;;;5.70;3.30;;;;;;;16.93;47.49;101046.31;5564336;32;34385;-56
2022/10/19 15:12:14;;;;;;;5.85;3.50;;;;;;;16.95;46.91;101041.38;5566400;32;33189;-56
2022/10/19 15:15:29;;;;;;;8.15;3.12;;;;;;;16.89;47.52;101046.13;5552656;32;33834;-55
2022/10/19 15:18:38;;;;;;;6.00;3.10;;;;;;;16.88;48.01;101053.41;5569449;32;34287;-56
2022/10/19 15:22:08;;;;;;;5.13;3.43;;;;;;;16.74;47.89;101047.22;5569290;32;34371;-56
2022/10/19 15:25:10;;;;;;;6.12;2.97;;;;;;;16.73;47.50;101048.34;5568606;32;34398;-56
2022/10/19 15:28:38;;;;;;;4.90;3.15;;;;;;;16.73;47.31;101053.75;5569129;32;34381;-56
2022/10/19 15:31:43;;;;;;;4.28;3.05;;;;;;;16.70;49.79;101056.28;5568614;32;34383;-56
